Time;durP1;ratioP1;P1;durP2;ratioP2;P2;SDS_P1;SDS_P2;PMS_P1;PMS_P2;Temp;Humidity;BMP_temperature;BMP_pressure;BME280_temperature;BME280_humidity;BME280_pressure;Samples;Min_cycle;Max_cycle;Signal;HPM_P1;HPM_P2
2022/03/23 00:01:40;;;;;;;16.55;10.45;;;3.40;99.90;;;;;;7236446;32;20287;-59
2022/03/23 00:05:43;;;;;;;17.00;10.30;;;3.50;99.90;;;;;;7236224;32;20121;-60
2022/03/23 00:09:45;;;;;;;21.85;11.45;;;3.50;99.90;;;;;;7234606;32;20195;-59
2022/03/23 00:13:58;;;;;;;15.57;10.57;;;3.40;99.90;;;;;;7240849;32;20616;-58
2022/03/23 00:18:00;;;;;;;18.08;10.65;;;3.40;99.90;;;;;;7234168;32;20188;-58
2022/03/23 00:22:03;;;;;;;19.02;10.93;;;3.30;99.90;;;;;;7235554;32;20124;-58
2022/03/23 00:26:05;;;;;;;17.73;11.70;;;3.30;99.90;;;;;;7235797;32;20206;-58
2022/03/23 00:30:08;;;;;;;21.92;11.48;;;3.20;99.90;;;;;;7236985;32;20293;-58
2022/03/23 00:34:10;;;;;;;17.17;10.68;;;3.20;99.90;;;;;;7240869;32;20315;-58
2022/03/23 00:38:11;;;;;;;18.98;10.48;;;3.20;99.90;;;;;;7239282;32;20625;-59
2022/03/23 00:42:13;;;;;;;21.00;11.20;;;3.10;99.90;;;;;;7241770;32;20116;-58
2022/03/23 00:46:15;;;;;;;21.00;10.40;;;3.00;99.90;;;;;;7242484;32;20135;-59
2022/03/23 00:50:17;;;;;;;17.35;11.45;;;3.00;99.90;;;;;;7242123;32;20203;-59
2022/03/23 00:54:19;;;;;;;16.17;10.88;;;2.90;99.90;;;;;;7239996;32;20134;-58
2022/03/23 00:58:21;;;;;;;17.65;10.70;;;2.80;99.90;;;;;;7238431;32;20117;-60
2022/03/23 01:02:23;;;;;;;18.25;10.75;;;2.80;99.90;;;;;;7241348;32;20131;-59
2022/03/23 01:06:26;;;;;;;22.05;11.85;;;2.70;99.90;;;;;;7242562;32;20235;-59
2022/03/23 01:10:27;;;;;;;17.42;11.25;;;2.70;99.90;;;;;;7241338;32;20148;-59
2022/03/23 01:14:29;;;;;;;19.48;10.75;;;2.70;99.90;;;;;;7246265;32;20419;-59
2022/03/23 01:18:31;;;;;;;20.45;11.32;;;2.70;99.90;;;;;;7244154;32;20159;-62
2022/03/23 01:22:33;;;;;;;18.70;11.38;;;2.60;99.90;;;;;;7245025;32;20140;-60
2022/03/23 01:26:35;;;;;;;19.83;11.30;;;2.60;99.90;;;;;;7246601;32;20437;-60
2022/03/23 01:30:37;;;;;;;19.80;11.38;;;2.60;99.90;;;;;;7244250;32;20270;-59
2022/03/23 01:34:38;;;;;;;20.58;11.30;;;2.50;99.90;;;;;;7242055;32;20116;-60
2022/03/23 01:38:40;;;;;;;24.10;12.27;;;2.50;99.90;;;;;;7237108;32;20128;-60
2022/03/23 01:42:42;;;;;;;19.60;11.02;;;2.50;99.90;;;;;;7242376;32;20231;-59
2022/03/23 01:47:00;;;;;;;16.42;10.23;;;2.40;99.90;;;;;;7237527;32;20158;-59
2022/03/23 01:51:02;;;;;;;19.58;11.63;;;2.40;99.90;;;;;;7237520;32;20567;-59
2022/03/23 01:55:11;;;;;;;17.75;10.43;;;2.30;99.90;;;;;;7237483;32;20527;-59
2022/03/23 01:59:14;;;;;;;19.12;11.32;;;2.30;99.90;;;;;;7236784;32;20137;-58
2022/03/23 02:03:16;;;;;;;20.73;10.73;;;2.30;99.90;;;;;;7241115;32;20112;-61
2022/03/23 02:07:18;;;;;;;18.98;11.43;;;2.30;99.90;;;;;;7237281;32;20217;-58
2022/03/23 02:11:19;;;;;;;21.95;11.57;;;2.20;99.90;;;;;;7244847;32;20441;-59
2022/03/23 02:15:23;;;;;;;23.40;11.60;;;2.10;99.90;;;;;;7239016;32;20134;-58
2022/03/23 02:19:25;;;;;;;17.77;10.90;;;2.10;99.90;;;;;;7240272;32;20124;-58
2022/03/23 02:23:27;;;;;;;18.60;11.25;;;2.10;99.90;;;;;;7243462;32;20409;-58
2022/03/23 02:27:29;;;;;;;19.85;11.15;;;2.10;99.90;;;;;;7239576;32;20116;-58
2022/03/23 02:31:31;;;;;;;23.12;11.55;;;2.00;99.90;;;;;;7239003;32;20464;-59
2022/03/23 02:35:33;;;;;;;18.90;11.60;;;2.00;99.90;;;;;;7235516;32;20500;-60
2022/03/23 02:39:35;;;;;;;17.45;11.85;;;2.00;99.90;;;;;;7233756;32;20142;-58
2022/03/23 02:43:37;;;;;;;21.55;11.30;;;1.90;99.90;;;;;;7241136;32;20263;-58
2022/03/23 02:47:39;;;;;;;21.67;12.27;;;1.90;99.90;;;;;;7240073;32;20506;-58
2022/03/23 02:51:40;;;;;;;14.82;10.30;;;1.80;99.90;;;;;;7240358;32;20235;-59
2022/03/23 03:04:45;;;;;;;16.85;10.50;;;1.70;99.90;;;;;;7237292;32;20779;-58
2022/03/23 03:08:50;;;;;;;18.12;10.93;;;1.70;99.90;;;;;;7232282;32;20631;-58
2022/03/23 03:12:52;;;;;;;18.98;12.25;;;1.70;99.90;;;;;;7241157;32;20270;-59
2022/03/23 03:16:54;;;;;;;21.17;12.13;;;1.60;99.90;;;;;;7243371;32;20501;-58
2022/03/23 03:20:56;;;;;;;18.23;11.40;;;1.60;99.90;;;;;;7237470;32;20183;-58
2022/03/23 03:24:58;;;;;;;24.73;12.25;;;1.50;99.90;;;;;;7231482;32;20563;-58
2022/03/23 03:28:59;;;;;;;19.77;11.48;;;1.50;99.90;;;;;;7231939;32;20108;-58
2022/03/23 03:33:01;;;;;;;21.42;11.43;;;1.50;99.90;;;;;;7238162;32;20215;-58
2022/03/23 03:37:03;;;;;;;24.00;12.32;;;1.40;99.90;;;;;;7236468;32;20266;-59
2022/03/23 03:41:05;;;;;;;20.98;12.07;;;1.40;99.90;;;;;;7239858;32;20449;-58
2022/03/23 03:45:07;;;;;;;19.35;10.98;;;1.40;99.90;;;;;;7231228;32;20187;-58
2022/03/23 03:49:09;;;;;;;22.40;12.27;;;1.40;99.90;;;;;;7234206;32;20230;-58
2022/03/23 03:53:11;;;;;;;20.65;11.60;;;1.50;99.90;;;;;;7236822;32;20155;-58
2022/03/23 03:57:13;;;;;;;20.17;11.63;;;1.30;99.90;;;;;;7238187;32;20511;-58
2022/03/23 04:01:14;;;;;;;18.15;11.23;;;1.30;99.90;;;;;;7237399;32;20126;-58
2022/03/23 04:05:16;;;;;;;19.10;11.05;;;1.30;99.90;;;;;;7238433;32;20127;-58
2022/03/23 04:09:18;;;;;;;19.75;11.70;;;1.20;99.90;;;;;;7242308;32;20574;-58
2022/03/23 04:13:20;;;;;;;20.65;11.75;;;1.20;99.90;;;;;;7242407;32;20140;-59
2022/03/23 04:17:21;;;;;;;21.15;12.50;;;1.20;99.90;;;;;;7240775;32;20148;-59
2022/03/23 04:21:23;;;;;;;20.23;12.23;;;1.20;99.90;;;;;;7238405;32;20204;-59
2022/03/23 04:25:25;;;;;;;21.95;11.75;;;1.20;99.90;;;;;;7240519;32;20126;-59
2022/03/23 04:29:27;;;;;;;22.60;11.75;;;1.20;99.90;;;;;;7235767;32;20113;-59
2022/03/23 04:33:29;;;;;;;25.58;12.80;;;1.20;99.90;;;;;;7240105;32;20112;-58
2022/03/23 04:37:31;;;;;;;20.15;12.20;;;1.20;99.90;;;;;;7239895;32;20109;-58
2022/03/23 04:41:33;;;;;;;25.20;12.32;;;1.20;99.90;;;;;;7239669;32;20548;-58
2022/03/23 04:45:34;;;;;;;22.30;12.68;;;1.10;99.90;;;;;;7237797;32;20207;-58
2022/03/23 04:49:36;;;;;;;19.67;12.60;;;1.10;99.90;;;;;;7234251;32;20141;-58
2022/03/23 04:53:38;;;;;;;24.52;12.20;;;1.10;99.90;;;;;;7237867;32;20226;-58
2022/03/23 04:57:40;;;;;;;19.55;12.25;;;1.10;99.90;;;;;;7237421;32;20466;-58
2022/03/23 05:01:41;;;;;;;23.40;12.52;;;1.10;99.90;;;;;;7242961;32;20231;-58
2022/03/23 05:05:44;;;;;;;22.00;12.18;;;1.10;99.90;;;;;;7242239;32;20600;-58
2022/03/23 05:09:45;;;;;;;21.85;12.73;;;1.00;99.90;;;;;;7241050;32;20164;-58
2022/03/23 05:13:47;;;;;;;22.73;12.48;;;1.00;99.90;;;;;;7242434;32;20849;-58
2022/03/23 05:17:49;;;;;;;21.15;12.43;;;1.00;99.90;;;;;;7240320;32;20115;-58
2022/03/23 05:21:50;;;;;;;23.48;13.32;;;1.00;99.90;;;;;;7243874;32;20124;-58
2022/03/23 05:25:52;;;;;;;20.60;12.27;;;0.90;99.90;;;;;;7247468;32;20140;-58
2022/03/23 05:29:54;;;;;;;22.10;13.05;;;0.80;99.90;;;;;;7244588;32;20610;-58
2022/03/23 05:33:55;;;;;;;21.77;12.85;;;0.80;99.90;;;;;;7238842;32;20210;-59
2022/03/23 05:37:57;;;;;;;22.08;13.50;;;0.80;99.90;;;;;;7242436;32;20140;-59
2022/03/23 05:41:59;;;;;;;21.52;11.55;;;0.70;99.90;;;;;;7243391;32;20109;-59
2022/03/23 05:46:01;;;;;;;21.50;12.25;;;0.70;99.90;;;;;;7242820;32;20532;-60
2022/03/23 05:50:03;;;;;;;19.75;11.75;;;0.80;99.90;;;;;;7246892;32;20108;-60
2022/03/23 05:54:08;;;;;;;22.60;12.80;;;0.80;99.90;;;;;;7244566;32;20112;-59
2022/03/23 05:58:09;;;;;;;18.95;11.90;;;0.70;99.90;;;;;;7245248;32;20203;-60
2022/03/23 06:02:11;;;;;;;21.62;13.15;;;0.70;99.90;;;;;;7237019;32;20689;-61
2022/03/23 06:06:13;;;;;;;20.98;12.25;;;0.70;99.90;;;;;;7246934;32;20898;-61
2022/03/23 06:10:15;;;;;;;20.90;12.85;;;0.80;99.90;;;;;;7246430;32;20113;-60
2022/03/23 06:14:16;;;;;;;22.00;13.23;;;1.00;99.90;;;;;;7244456;32;20460;-61
2022/03/23 06:18:18;;;;;;;26.55;15.55;;;1.10;99.90;;;;;;7246341;32;20144;-60
2022/03/23 06:22:20;;;;;;;22.02;13.30;;;1.20;99.90;;;;;;7242502;32;20105;-60
2022/03/23 06:26:21;;;;;;;21.05;11.88;;;1.30;99.90;;;;;;7243267;32;20206;-60
2022/03/23 06:30:23;;;;;;;22.13;12.48;;;1.40;99.90;;;;;;7242983;32;20263;-62
2022/03/23 06:34:25;;;;;;;34.47;19.92;;;1.50;99.90;;;;;;7245671;32;20155;-60
2022/03/23 06:38:31;;;;;;;23.17;14.50;;;1.60;99.90;;;;;;7241183;32;20807;-60
2022/03/23 06:42:33;;;;;;;23.23;13.05;;;1.80;99.90;;;;;;7236255;32;20789;-60
2022/03/23 06:46:35;;;;;;;20.85;12.95;;;1.90;99.90;;;;;;7244832;32;20563;-59
2022/03/23 06:50:37;;;;;;;18.92;11.70;;;2.00;99.90;;;;;;7245622;32;20108;-60
2022/03/23 06:54:38;;;;;;;23.00;13.13;;;2.20;99.90;;;;;;7238347;32;20237;-60
2022/03/23 06:58:40;;;;;;;21.08;13.13;;;2.30;99.90;;;;;;7239162;32;20116;-60
2022/03/23 07:02:43;;;;;;;22.37;13.43;;;2.50;99.90;;;;;;7235433;32;20116;-60
2022/03/23 07:06:45;;;;;;;30.12;16.02;;;2.70;99.90;;;;;;7238564;32;20116;-62
2022/03/23 07:10:47;;;;;;;23.60;15.52;;;2.90;99.90;;;;;;7242603;32;20440;-62
2022/03/23 07:14:49;;;;;;;24.60;14.00;;;3.10;99.90;;;;;;7241926;32;20195;-62
2022/03/23 07:18:51;;;;;;;21.55;13.65;;;3.30;99.90;;;;;;7239658;32;20113;-61
2022/03/23 07:22:53;;;;;;;22.80;13.50;;;3.50;99.90;;;;;;7242977;32;20194;-60
2022/03/23 07:26:54;;;;;;;26.62;13.82;;;3.70;99.90;;;;;;7238325;32;20576;-62
2022/03/23 07:31:16;;;;;;;24.35;15.05;;;3.80;99.90;;;;;;7237715;32;20126;-60
2022/03/23 07:35:18;;;;;;;25.33;15.65;;;4.00;99.90;;;;;;7228487;32;20159;-61
2022/03/23 07:39:21;;;;;;;22.08;13.13;;;4.40;99.90;;;;;;7242725;32;20108;-64
2022/03/23 07:43:23;;;;;;;21.77;13.15;;;4.70;99.90;;;;;;7243585;32;20156;-62
2022/03/23 07:47:24;;;;;;;20.60;13.60;;;5.00;99.90;;;;;;7229672;32;20159;-64
2022/03/23 07:51:26;;;;;;;23.95;13.38;;;5.30;99.90;;;;;;7241611;32;20117;-66
2022/03/23 07:55:28;;;;;;;20.12;12.75;;;5.70;99.90;;;;;;7241241;32;20767;-63
2022/03/23 07:59:29;;;;;;;20.40;12.25;;;6.00;99.90;;;;;;7238727;32;20298;-64
2022/03/23 08:03:31;;;;;;;20.25;13.52;;;6.30;99.90;;;;;;7241753;32;20559;-63
2022/03/23 08:07:33;;;;;;;25.30;12.18;;;6.70;99.90;;;;;;7243976;32;20322;-64
2022/03/23 08:11:35;;;;;;;24.70;13.43;;;7.60;99.90;;;;;;7242738;32;20113;-64
2022/03/23 08:15:37;;;;;;;24.65;12.68;;;8.00;99.90;;;;;;7239518;32;20139;-66
2022/03/23 08:19:39;;;;;;;20.85;12.55;;;8.60;99.90;;;;;;7241099;32;20221;-66
2022/03/23 08:23:41;;;;;;;18.83;12.43;;;9.30;99.90;;;;;;7242379;32;20112;-62
2022/03/23 08:27:43;;;;;;;19.92;13.45;;;10.10;99.90;;;;;;7243267;32;20125;-66
2022/03/23 08:31:46;;;;;;;20.75;13.20;;;10.80;99.90;;;;;;7246415;32;20816;-66
2022/03/23 08:35:48;;;;;;;19.58;12.57;;;12.20;99.90;;;;;;7237723;32;20144;-65
2022/03/23 08:39:49;;;;;;;21.05;13.32;;;13.80;93.60;;;;;;7235358;32;20128;-64
2022/03/23 08:43:51;;;;;;;20.02;14.18;;;15.00;91.00;;;;;;7237785;32;20437;-65
2022/03/23 08:47:54;;;;;;;18.98;14.73;;;16.00;71.70;;;;;;7226893;32;20165;-64
2022/03/23 08:51:55;;;;;;;23.17;15.45;;;16.30;67.20;;;;;;7236304;32;20105;-63
2022/03/23 08:55:57;;;;;;;19.27;14.32;;;16.40;59.30;;;;;;7245162;32;20774;-64
2022/03/23 08:59:59;;;;;;;21.87;16.10;;;16.70;59.30;;;;;;7248073;32;20249;-65
2022/03/23 09:04:04;;;;;;;21.40;15.90;;;17.10;58.30;;;;;;7226551;32;20185;-65
2022/03/23 09:08:07;;;;;;;24.58;16.77;;;17.40;58.30;;;;;;7239154;32;20108;-62
2022/03/23 09:12:09;;;;;;;21.55;16.12;;;17.40;54.50;;;;;;7239325;32;20227;-61
2022/03/23 09:16:11;;;;;;;18.87;15.15;;;17.50;55.40;;;;;;7242276;32;20116;-66
2022/03/23 09:20:13;;;;;;;21.58;15.52;;;18.10;53.00;;;;;;7224778;32;20136;-60
2022/03/23 09:24:15;;;;;;;21.85;15.98;;;17.90;51.70;;;;;;7240930;32;20239;-63
2022/03/23 09:28:17;;;;;;;21.05;16.12;;;18.40;53.40;;;;;;7240951;32;20507;-65
2022/03/23 09:32:19;;;;;;;21.42;16.10;;;18.70;50.00;;;;;;7239577;32;20709;-61
2022/03/23 09:40:49;;;;;;;21.92;15.77;;;18.60;49.80;;;;;;7226576;32;20561;-61
2022/03/23 09:44:55;;;;;;;19.70;15.75;;;19.10;49.20;;;;;;7241529;32;20535;-61
2022/03/23 09:48:57;;;;;;;20.37;16.60;;;20.40;50.10;;;;;;7243227;32;20562;-61
2022/03/23 09:52:59;;;;;;;21.27;16.60;;;21.00;47.70;;;;;;7240224;32;20274;-63
2022/03/23 09:57:01;;;;;;;22.70;16.37;;;21.60;46.90;;;;;;7248678;32;20130;-60
2022/03/23 10:01:04;;;;;;;25.80;16.77;;;22.10;44.10;;;;;;7243311;32;20766;-64
2022/03/23 10:05:32;;;;;;;22.00;15.95;;;22.70;43.30;;;;;;7238776;32;20132;-62
2022/03/23 10:09:55;;;;;;;25.62;17.90;;;23.10;41.80;;;;;;7242210;32;20128;-63
2022/03/23 10:14:12;;;;;;;20.40;17.30;;;23.30;40.40;;;;;;7239947;32;20227;-62
2022/03/23 10:18:46;;;;;;;27.08;17.80;;;24.50;40.50;;;;;;7239157;32;20579;-61
2022/03/23 10:22:50;;;;;;;20.37;16.98;;;25.50;38.50;;;;;;7239779;32;20129;-61
2022/03/23 10:26:51;;;;;;;20.60;18.27;;;25.90;39.80;;;;;;7240616;32;20617;-64
2022/03/23 10:30:53;;;;;;;21.17;18.15;;;26.40;37.20;;;;;;7235071;32;20616;-63
2022/03/23 10:34:55;;;;;;;20.15;17.58;;;26.40;35.00;;;;;;7248075;32;20127;-66
2022/03/23 10:39:02;;;;;;;20.40;17.42;;;26.60;35.20;;;;;;7241326;32;20180;-65
2022/03/23 10:43:04;;;;;;;22.70;18.73;;;26.50;34.40;;;;;;7246390;32;20104;-64
2022/03/23 10:47:06;;;;;;;23.08;19.12;;;25.70;36.50;;;;;;7224037;32;20209;-63
2022/03/23 10:51:08;;;;;;;28.02;18.05;;;26.10;33.80;;;;;;7231388;32;20179;-65
2022/03/23 10:55:10;;;;;;;22.92;17.75;;;26.30;33.30;;;;;;7235780;32;20344;-66
2022/03/23 10:59:25;;;;;;;22.83;18.23;;;26.60;34.80;;;;;;7225776;32;20188;-63
2022/03/23 11:03:38;;;;;;;23.30;19.98;;;25.70;32.90;;;;;;7230375;32;20275;-62
2022/03/23 11:07:40;;;;;;;21.92;19.40;;;25.40;32.90;;;;;;7233267;32;20254;-63
2022/03/23 11:16:31;;;;;;;22.45;17.30;;;24.90;32.90;;;;;;7232517;32;20602;-61
2022/03/23 11:20:59;;;;;;;23.15;17.37;;;24.40;34.80;;;;;;7235113;32;20243;-63
2022/03/23 11:25:01;;;;;;;20.17;16.83;;;24.70;33.50;;;;;;7230723;32;20255;-62
2022/03/23 11:29:03;;;;;;;17.73;15.45;;;24.70;34.10;;;;;;7234632;32;20187;-63
2022/03/23 11:33:08;;;;;;;21.25;17.23;;;24.30;32.10;;;;;;7231733;32;20643;-61
2022/03/23 11:37:09;;;;;;;21.10;16.92;;;23.00;34.10;;;;;;7234066;32;20238;-65
2022/03/23 11:41:19;;;;;;;24.30;17.85;;;23.10;33.60;;;;;;7232249;32;20176;-62
2022/03/23 11:45:21;;;;;;;20.45;17.12;;;22.90;32.60;;;;;;7218823;32;20255;-61
2022/03/23 11:49:48;;;;;;;21.12;17.08;;;22.40;37.60;;;;;;7231399;32;20378;-61
2022/03/23 11:54:20;;;;;;;20.25;15.65;;;22.40;35.00;;;;;;7227169;32;20546;-63
2022/03/23 11:58:34;;;;;;;21.55;18.02;;;22.80;34.80;;;;;;7227776;32;20243;-63
2022/03/23 12:02:42;;;;;;;28.05;17.55;;;23.20;35.10;;;;;;7241365;32;20505;-62
2022/03/23 12:06:44;;;;;;;18.12;14.82;;;23.50;33.90;;;;;;7239843;32;20311;-63
2022/03/23 12:10:46;;;;;;;17.50;15.45;;;23.80;32.60;;;;;;7233842;32;20290;-62
2022/03/23 12:14:48;;;;;;;22.15;15.73;;;23.10;33.20;;;;;;7231260;32;20180;-62
2022/03/23 12:19:00;;;;;;;19.05;15.95;;;22.50;35.00;;;;;;7235452;32;20158;-61
2022/03/23 12:23:23;;;;;;;19.95;16.05;;;22.60;32.70;;;;;;7234206;32;20305;-62
2022/03/23 12:27:36;;;;;;;22.13;15.43;;;22.30;33.50;;;;;;7212257;32;20867;-64
2022/03/23 12:31:39;;;;;;;18.50;15.73;;;21.80;35.50;;;;;;7235371;32;20214;-61
2022/03/23 12:35:47;;;;;;;18.80;15.40;;;20.70;36.50;;;;;;7237598;32;20264;-60
2022/03/23 12:39:53;;;;;;;22.77;16.67;;;20.30;38.80;;;;;;7231987;32;20195;-63
2022/03/23 12:43:55;;;;;;;21.35;16.20;;;20.60;37.70;;;;;;7229550;32;20203;-63
2022/03/23 12:47:59;;;;;;;18.98;15.15;;;20.60;39.60;;;;;;7232551;32;20324;-61
2022/03/23 13:00:47;;;;;;;24.00;15.07;;;20.70;37.30;;;;;;7227005;32;20192;-62
2022/03/23 13:04:50;;;;;;;25.30;16.02;;;20.80;37.50;;;;;;7227961;32;20176;-62
2022/03/23 13:08:52;;;;;;;23.38;15.52;;;20.40;37.70;;;;;;7220357;32;20282;-61
2022/03/23 13:13:07;;;;;;;21.98;15.35;;;20.30;37.90;;;;;;7238811;32;20132;-61
2022/03/23 13:17:09;;;;;;;20.65;15.23;;;20.20;36.90;;;;;;7239148;32;20196;-64
2022/03/23 13:21:22;;;;;;;20.95;16.27;;;20.70;38.90;;;;;;7238249;32;20441;-63
2022/03/23 13:25:24;;;;;;;22.70;16.10;;;20.80;36.60;;;;;;7236238;32;20346;-62
2022/03/23 13:29:25;;;;;;;20.92;16.12;;;20.40;36.90;;;;;;7234351;32;20191;-67
2022/03/23 13:33:44;;;;;;;21.33;15.38;;;20.90;37.50;;;;;;7239691;32;20223;-66
2022/03/23 13:37:59;;;;;;;23.65;16.77;;;21.00;37.50;;;;;;7235402;32;20198;-64
2022/03/23 13:46:23;;;;;;;23.20;16.75;;;21.50;34.40;;;;;;7243912;32;20124;-60
2022/03/23 13:50:26;;;;;;;26.35;16.55;;;21.80;35.70;;;;;;7245361;32;20673;-58
2022/03/23 13:54:27;;;;;;;20.80;16.05;;;21.90;37.00;;;;;;7242254;32;20126;-57
2022/03/23 13:58:29;;;;;;;19.70;15.82;;;22.10;35.80;;;;;;7243969;32;20120;-56
2022/03/23 14:02:33;;;;;;;21.17;17.65;;;22.30;34.90;;;;;;7250707;32;20837;-60
2022/03/23 14:06:57;;;;;;;27.60;18.30;;;22.00;35.00;;;;;;7247523;32;20608;-59
2022/03/23 14:10:59;;;;;;;24.80;18.73;;;21.40;35.10;;;;;;7234969;32;20512;-56
2022/03/23 14:15:00;;;;;;;25.12;17.23;;;20.90;35.60;;;;;;7244974;32;20198;-58
2022/03/23 14:19:03;;;;;;;24.42;16.80;;;21.00;37.20;;;;;;7240572;32;20112;-59
2022/03/23 14:23:06;;;;;;;24.25;16.80;;;21.40;36.30;;;;;;7245318;32;20179;-55
2022/03/23 14:27:22;;;;;;;22.77;17.17;;;21.80;35.00;;;;;;7239834;32;20105;-56
2022/03/23 14:31:24;;;;;;;24.27;18.43;;;22.10;36.60;;;;;;7236202;32;20436;-58
2022/03/23 14:35:40;;;;;;;22.45;17.62;;;22.10;33.80;;;;;;7238050;32;20123;-56
2022/03/23 14:39:45;;;;;;;25.20;18.58;;;22.20;35.30;;;;;;7224738;32;20517;-57
2022/03/23 14:43:50;;;;;;;23.42;17.90;;;22.30;33.50;;;;;;7238811;32;20204;-60
2022/03/23 14:47:52;;;;;;;22.77;17.12;;;22.30;35.40;;;;;;7241637;32;20219;-58
2022/03/23 14:51:54;;;;;;;21.75;17.05;;;22.00;34.50;;;;;;7243889;32;20124;-56
2022/03/23 14:55:57;;;;;;;23.95;15.45;;;21.00;33.30;;;;;;7237320;32;20104;-58
2022/03/23 14:59:59;;;;;;;21.17;16.12;;;20.40;36.60;;;;;;7241868;32;20472;-63
2022/03/23 15:04:01;;;;;;;24.58;17.60;;;20.00;37.30;;;;;;7243163;32;20678;-60
2022/03/23 15:16:44;;;;;;;22.85;15.02;;;19.00;37.10;;;;;;7235433;32;20516;-63
2022/03/23 15:20:46;;;;;;;24.27;15.63;;;18.70;38.60;;;;;;7239769;32;20124;-61
2022/03/23 15:24:48;;;;;;;19.40;14.18;;;18.80;37.30;;;;;;7242317;32;20104;-61
2022/03/23 15:28:51;;;;;;;23.55;15.27;;;18.60;38.00;;;;;;7239150;32;20100;-62
2022/03/23 15:32:52;;;;;;;19.00;13.77;;;18.40;36.90;;;;;;7240977;32;20486;-64
2022/03/23 15:36:58;;;;;;;22.92;14.40;;;18.40;36.30;;;;;;7242598;32;20219;-58
2022/03/23 15:41:00;;;;;;;21.02;14.63;;;18.20;38.70;;;;;;7243868;32;20175;-61
2022/03/23 15:45:05;;;;;;;20.67;13.48;;;18.30;37.10;;;;;;7243304;32;20535;-60
2022/03/23 15:49:16;;;;;;;22.05;14.70;;;18.10;36.90;;;;;;7239453;32;20227;-64
2022/03/23 15:53:18;;;;;;;21.75;14.57;;;17.90;37.00;;;;;;7237479;32;20207;-63
2022/03/23 15:57:19;;;;;;;21.20;15.52;;;17.90;37.00;;;;;;7240109;32;20104;-62
2022/03/23 16:01:21;;;;;;;23.25;15.60;;;17.90;39.50;;;;;;7235175;32;20472;-61
2022/03/23 16:05:23;;;;;;;19.37;14.73;;;17.80;40.30;;;;;;7239803;32;20257;-63
2022/03/23 16:09:25;;;;;;;24.17;15.82;;;17.70;40.90;;;;;;7241694;32;20103;-63
2022/03/23 16:13:26;;;;;;;28.17;16.70;;;17.50;40.20;;;;;;7238109;32;20123;-63
2022/03/23 16:17:28;;;;;;;26.37;15.93;;;17.40;41.00;;;;;;7235109;32;20135;-62
2022/03/23 16:21:32;;;;;;;24.33;17.05;;;17.30;43.30;;;;;;7242604;32;20195;-62
2022/03/23 16:25:34;;;;;;;24.27;17.80;;;17.20;43.60;;;;;;7245668;32;20544;-63
2022/03/23 16:29:35;;;;;;;25.98;16.80;;;17.10;43.80;;;;;;7241023;32;20103;-62
2022/03/23 16:33:37;;;;;;;23.05;16.58;;;17.10;43.70;;;;;;7242935;32;20100;-64
2022/03/23 16:37:40;;;;;;;26.48;17.30;;;17.00;43.60;;;;;;7249606;32;20283;-64
2022/03/23 16:41:42;;;;;;;22.90;16.12;;;16.80;44.70;;;;;;7241876;32;20104;-60
2022/03/23 16:45:48;;;;;;;24.05;16.50;;;16.60;44.60;;;;;;7242517;32;20111;-62
2022/03/23 16:49:49;;;;;;;23.75;16.33;;;16.50;45.00;;;;;;7244067;32;20096;-60
2022/03/23 16:53:51;;;;;;;23.95;16.23;;;16.40;44.50;;;;;;7239496;32;20121;-63
2022/03/23 16:57:54;;;;;;;23.27;15.55;;;16.20;44.50;;;;;;7242197;32;20184;-63
2022/03/23 17:01:56;;;;;;;23.83;17.45;;;16.10;46.30;;;;;;7241793;32;20626;-63
2022/03/23 17:14:42;;;;;;;28.65;17.70;;;15.30;49.00;;;;;;7245142;32;20253;-61
2022/03/23 17:18:44;;;;;;;24.33;17.12;;;15.10;49.00;;;;;;7239661;32;20226;-63
2022/03/23 17:22:46;;;;;;;21.55;16.30;;;14.90;49.90;;;;;;7244169;32;20199;-61
2022/03/23 17:26:48;;;;;;;23.87;16.00;;;14.70;52.40;;;;;;7247949;32;20146;-62
2022/03/23 17:30:50;;;;;;;28.15;16.25;;;14.40;54.30;;;;;;7247372;32;20199;-63
2022/03/23 17:34:52;;;;;;;21.50;15.63;;;14.20;54.40;;;;;;7244694;32;20126;-61
2022/03/23 17:38:54;;;;;;;23.10;15.00;;;13.90;57.00;;;;;;7244940;32;20208;-63
2022/03/23 17:42:56;;;;;;;22.52;15.02;;;13.70;61.00;;;;;;7242936;32;20101;-61
2022/03/23 17:47:04;;;;;;;20.23;13.40;;;13.30;63.50;;;;;;7245555;32;20116;-63
2022/03/23 17:51:07;;;;;;;20.98;12.52;;;13.00;65.90;;;;;;7245536;32;20127;-62
2022/03/23 17:55:09;;;;;;;17.33;12.25;;;12.80;67.70;;;;;;7234250;32;20240;-63
2022/03/23 17:59:12;;;;;;;17.48;12.13;;;12.40;71.80;;;;;;7247694;32;20120;-61
2022/03/23 18:03:15;;;;;;;19.02;13.18;;;12.10;77.60;;;;;;7252745;32;20130;-60
2022/03/23 18:07:17;;;;;;;16.95;11.40;;;11.80;84.40;;;;;;7247072;32;20559;-61
2022/03/23 18:11:18;;;;;;;17.98;10.48;;;11.50;90.60;;;;;;7244114;32;20788;-60
2022/03/23 18:15:20;;;;;;;20.08;11.25;;;11.30;93.50;;;;;;7249458;32;20147;-61
2022/03/23 18:19:22;;;;;;;19.40;10.75;;;11.10;98.60;;;;;;7238757;32;20523;-62
2022/03/23 18:23:24;;;;;;;18.23;10.77;;;10.80;99.90;;;;;;7243884;32;20120;-60
2022/03/23 18:27:25;;;;;;;24.42;13.88;;;10.50;99.90;;;;;;7253015;32;20104;-62
2022/03/23 18:31:28;;;;;;;21.55;12.48;;;10.30;99.90;;;;;;7236893;32;20544;-61
2022/03/23 18:35:30;;;;;;;23.02;10.07;;;10.20;99.90;;;;;;7243725;32;20427;-60
2022/03/23 18:39:32;;;;;;;17.77;9.80;;;10.00;99.90;;;;;;7241782;32;20171;-59
2022/03/23 18:43:33;;;;;;;20.75;10.20;;;9.70;99.90;;;;;;7244799;32;20204;-60
2022/03/23 18:47:36;;;;;;;16.70;9.93;;;9.50;99.90;;;;;;7242469;32;20539;-59
2022/03/23 18:51:37;;;;;;;19.50;10.63;;;9.30;99.90;;;;;;7243870;32;20097;-59
2022/03/23 18:55:40;;;;;;;21.05;10.85;;;9.20;99.90;;;;;;7245052;32;20183;-60
2022/03/23 18:59:45;;;;;;;15.07;10.90;;;9.00;99.90;;;;;;7243573;32;20108;-60
2022/03/23 19:03:47;;;;;;;15.63;11.60;;;8.90;99.90;;;;;;7241244;32;20696;-60
2022/03/23 19:07:52;;;;;;;24.10;11.73;;;8.70;99.90;;;;;;7245944;32;20097;-61
2022/03/23 19:11:54;;;;;;;19.70;11.48;;;8.60;99.90;;;;;;7242692;32;20539;-59
2022/03/23 19:15:56;;;;;;;20.20;12.00;;;8.50;99.90;;;;;;7240454;32;20120;-60
2022/03/23 19:19:57;;;;;;;25.30;12.93;;;8.30;99.90;;;;;;7240497;32;20389;-59
2022/03/23 19:23:59;;;;;;;23.12;13.00;;;8.20;99.90;;;;;;7252790;32;20547;-59
2022/03/23 19:28:01;;;;;;;20.80;12.88;;;8.10;99.90;;;;;;7240643;32;20261;-60
2022/03/23 19:32:04;;;;;;;21.73;13.35;;;7.90;99.90;;;;;;7243729;32;20701;-60
2022/03/23 19:36:06;;;;;;;24.73;14.25;;;7.80;99.90;;;;;;7245153;32;20097;-60
2022/03/23 19:40:09;;;;;;;23.12;14.93;;;7.70;99.90;;;;;;7244368;32;20113;-61
2022/03/23 19:44:11;;;;;;;30.73;15.85;;;7.60;99.90;;;;;;7242504;32;20594;-62
2022/03/23 19:48:13;;;;;;;25.52;16.27;;;7.40;99.90;;;;;;7243009;32;20119;-60
2022/03/23 19:52:15;;;;;;;23.65;15.77;;;7.30;99.90;;;;;;7245736;32;20457;-63
2022/03/23 19:56:17;;;;;;;25.37;14.98;;;7.30;99.90;;;;;;7241700;32;20430;-60
2022/03/23 20:00:19;;;;;;;31.95;16.52;;;7.20;99.90;;;;;;7239404;32;20248;-58
2022/03/23 20:04:20;;;;;;;25.70;15.88;;;7.10;99.90;;;;;;7244795;32;20213;-62
2022/03/23 20:08:22;;;;;;;25.60;17.48;;;7.00;99.90;;;;;;7242474;32;20692;-62
2022/03/23 20:12:24;;;;;;;28.70;16.02;;;6.90;99.90;;;;;;7241325;32;20104;-63
2022/03/23 20:16:26;;;;;;;26.85;15.88;;;6.80;99.90;;;;;;7244107;32;20103;-62
2022/03/23 20:20:28;;;;;;;31.12;16.45;;;6.70;99.90;;;;;;7242816;32;20172;-62
2022/03/23 20:24:29;;;;;;;29.08;16.30;;;6.60;99.90;;;;;;7244094;32;20109;-61
2022/03/23 20:28:33;;;;;;;29.77;17.20;;;6.50;99.90;;;;;;7248427;32;22023;-63
2022/03/23 20:32:35;;;;;;;29.12;16.37;;;6.40;99.90;;;;;;7243768;32;20218;-62
2022/03/23 20:36:37;;;;;;;33.72;17.00;;;6.30;99.90;;;;;;7229949;32;20195;-62
2022/03/23 20:40:39;;;;;;;30.70;18.20;;;6.20;99.90;;;;;;7242142;32;20180;-62
2022/03/23 20:44:41;;;;;;;31.40;18.15;;;6.10;99.90;;;;;;7241280;32;20196;-61
2022/03/23 20:48:44;;;;;;;32.03;17.27;;;6.00;99.90;;;;;;7243767;32;20734;-60
2022/03/23 20:52:45;;;;;;;31.40;17.83;;;6.00;99.90;;;;;;7245212;32;20216;-62
2022/03/23 20:56:47;;;;;;;33.40;18.80;;;5.90;99.90;;;;;;7242540;32;20203;-61
2022/03/23 21:00:52;;;;;;;33.92;20.17;;;5.80;99.90;;;;;;7246740;32;20097;-62
2022/03/23 21:04:54;;;;;;;37.20;21.08;;;5.70;99.90;;;;;;7247648;32;20500;-62
2022/03/23 21:08:56;;;;;;;30.62;18.48;;;5.70;99.90;;;;;;7245273;32;20163;-61
2022/03/23 21:12:58;;;;;;;33.78;19.12;;;5.60;99.90;;;;;;7247640;32;20205;-61
2022/03/23 21:17:00;;;;;;;39.90;18.75;;;5.50;99.90;;;;;;7241391;32;20109;-61
2022/03/23 21:21:02;;;;;;;33.05;18.87;;;5.50;99.90;;;;;;7240622;32;20213;-62
2022/03/23 21:25:05;;;;;;;30.00;19.33;;;5.40;99.90;;;;;;7246289;32;20285;-63
2022/03/23 21:29:07;;;;;;;29.65;18.75;;;5.30;99.90;;;;;;7246349;32;20097;-61
2022/03/23 21:33:11;;;;;;;32.55;19.15;;;5.30;99.90;;;;;;7242724;32;20346;-64